Terminal Aerodrome Forecast
Issued by NWS Louisville, KY

Home | Current Version | Previous Version | Text Only | Print | Product List | Glossary On
Versions: 1 2 3 4 5 6 7 8 9 10 11 12 13 14 15 16 17 18 19 20
889
FTUS43 KLMK 300539
TAFBWG
TAF
KBWG 300539Z 3006/0106 07005KT P6SM SCT070 BKN100
     FM301600 12006KT 5SM -SHRA BKN040 OVC080
     FM302000 14006KT P6SM VCSH SCT040 OVC080
      TEMPO 0102/0106 3SM -TSRA SCT025 OVC040CB=

USA.gov is the U.S. government's official web portal to all federal, state and local government web resources and services.